sensor_id;sensor_type;location;lat;lon;timestamp;P1;durP1;ratioP1;P2;durP2;ratioP2
65172;SDS011;51758;52.218;5.172;2023-02-15T00:01:35;44.87;;;27.00;;
65172;SDS011;51758;52.218;5.172;2023-02-15T00:04:04;45.17;;;26.90;;
65172;SDS011;51758;52.218;5.172;2023-02-15T00:09:00;38.37;;;25.13;;
65172;SDS011;51758;52.218;5.172;2023-02-15T00:11:29;44.38;;;25.58;;
65172;SDS011;51758;52.218;5.172;2023-02-15T00:14:18;50.53;;;29.33;;
65172;SDS011;51758;52.218;5.172;2023-02-15T00:16:47;46.73;;;27.40;;
65172;SDS011;51758;52.218;5.172;2023-02-15T00:19:16;41.33;;;26.03;;
65172;SDS011;51758;52.218;5.172;2023-02-15T00:21:46;42.90;;;26.13;;
65172;SDS011;51758;52.218;5.172;2023-02-15T00:24:16;48.70;;;27.77;;
65172;SDS011;51758;52.218;5.172;2023-02-15T00:26:45;47.33;;;27.97;;
65172;SDS011;51758;52.218;5.172;2023-02-15T00:29:14;49.53;;;27.13;;
65172;SDS011;51758;52.218;5.172;2023-02-15T00:31:45;46.30;;;27.27;;
65172;SDS011;51758;52.218;5.172;2023-02-15T00:34:14;48.60;;;27.30;;
65172;SDS011;51758;52.218;5.172;2023-02-15T00:36:43;48.23;;;27.60;;
65172;SDS011;51758;52.218;5.172;2023-02-15T00:39:12;49.10;;;28.27;;
65172;SDS011;51758;52.218;5.172;2023-02-15T00:41:40;48.38;;;27.52;;
65172;SDS011;51758;52.218;5.172;2023-02-15T00:44:08;45.80;;;27.50;;
65172;SDS011;51758;52.218;5.172;2023-02-15T00:46:37;46.42;;;27.45;;
65172;SDS011;51758;52.218;5.172;2023-02-15T00:49:05;49.40;;;28.03;;
65172;SDS011;51758;52.218;5.172;2023-02-15T00:51:33;48.17;;;27.57;;
65172;SDS011;51758;52.218;5.172;2023-02-15T00:54:01;49.77;;;28.03;;
65172;SDS011;51758;52.218;5.172;2023-02-15T00:56:28;49.07;;;29.90;;
65172;SDS011;51758;52.218;5.172;2023-02-15T00:58:56;48.07;;;29.03;;
65172;SDS011;51758;52.218;5.172;2023-02-15T01:01:24;44.77;;;26.90;;
65172;SDS011;51758;52.218;5.172;2023-02-15T01:03:53;46.90;;;26.90;;
65172;SDS011;51758;52.218;5.172;2023-02-15T01:06:21;45.47;;;27.20;;
65172;SDS011;51758;52.218;5.172;2023-02-15T01:08:48;43.97;;;26.67;;
65172;SDS011;51758;52.218;5.172;2023-02-15T01:11:17;45.60;;;27.40;;
65172;SDS011;51758;52.218;5.172;2023-02-15T01:13:48;44.50;;;26.40;;
65172;SDS011;51758;52.218;5.172;2023-02-15T01:16:16;46.88;;;27.13;;
65172;SDS011;51758;52.218;5.172;2023-02-15T01:18:44;46.70;;;29.77;;
65172;SDS011;51758;52.218;5.172;2023-02-15T01:21:14;47.85;;;27.98;;
65172;SDS011;51758;52.218;5.172;2023-02-15T01:23:43;50.33;;;27.97;;
65172;SDS011;51758;52.218;5.172;2023-02-15T01:26:12;49.22;;;28.08;;
65172;SDS011;51758;52.218;5.172;2023-02-15T01:28:40;47.22;;;28.70;;
65172;SDS011;51758;52.218;5.172;2023-02-15T01:31:08;43.47;;;26.93;;
65172;SDS011;51758;52.218;5.172;2023-02-15T01:33:37;46.07;;;26.67;;
65172;SDS011;51758;52.218;5.172;2023-02-15T01:36:07;46.13;;;27.70;;
65172;SDS011;51758;52.218;5.172;2023-02-15T01:38:36;48.63;;;27.77;;
65172;SDS011;51758;52.218;5.172;2023-02-15T01:41:05;44.93;;;26.53;;
65172;SDS011;51758;52.218;5.172;2023-02-15T01:43:50;44.57;;;26.03;;
65172;SDS011;51758;52.218;5.172;2023-02-15T01:46:22;42.53;;;25.20;;
65172;SDS011;51758;52.218;5.172;2023-02-15T01:48:55;34.43;;;21.93;;
65172;SDS011;51758;52.218;5.172;2023-02-15T01:51:27;40.53;;;24.03;;
65172;SDS011;51758;52.218;5.172;2023-02-15T01:54:00;39.33;;;24.50;;
65172;SDS011;51758;52.218;5.172;2023-02-15T01:56:33;36.97;;;22.83;;
65172;SDS011;51758;52.218;5.172;2023-02-15T01:59:04;46.57;;;25.30;;
65172;SDS011;51758;52.218;5.172;2023-02-15T02:01:35;39.70;;;23.30;;
65172;SDS011;51758;52.218;5.172;2023-02-15T02:04:05;43.03;;;23.83;;
65172;SDS011;51758;52.218;5.172;2023-02-15T02:06:39;40.50;;;23.33;;
65172;SDS011;51758;52.218;5.172;2023-02-15T02:09:08;42.10;;;24.33;;
65172;SDS011;51758;52.218;5.172;2023-02-15T02:11:36;43.13;;;24.87;;
65172;SDS011;51758;52.218;5.172;2023-02-15T02:14:06;50.97;;;26.20;;
65172;SDS011;51758;52.218;5.172;2023-02-15T02:16:36;38.60;;;22.00;;
65172;SDS011;51758;52.218;5.172;2023-02-15T02:19:17;38.03;;;22.00;;
65172;SDS011;51758;52.218;5.172;2023-02-15T02:25:22;45.03;;;25.67;;
65172;SDS011;51758;52.218;5.172;2023-02-15T02:28:06;48.03;;;26.73;;
65172;SDS011;51758;52.218;5.172;2023-02-15T02:30:53;43.13;;;23.83;;
65172;SDS011;51758;52.218;5.172;2023-02-15T02:33:43;37.80;;;22.27;;
65172;SDS011;51758;52.218;5.172;2023-02-15T02:36:20;40.75;;;24.15;;
65172;SDS011;51758;52.218;5.172;2023-02-15T02:38:54;48.43;;;26.67;;
65172;SDS011;51758;52.218;5.172;2023-02-15T02:41:36;57.23;;;28.90;;
65172;SDS011;51758;52.218;5.172;2023-02-15T02:44:10;50.77;;;26.10;;
65172;SDS011;51758;52.218;5.172;2023-02-15T02:46:46;44.07;;;23.60;;
65172;SDS011;51758;52.218;5.172;2023-02-15T02:57:01;45.50;;;24.63;;
65172;SDS011;51758;52.218;5.172;2023-02-15T02:59:32;49.13;;;26.73;;
65172;SDS011;51758;52.218;5.172;2023-02-15T03:02:05;47.10;;;25.57;;
65172;SDS011;51758;52.218;5.172;2023-02-15T03:04:39;45.63;;;25.50;;
65172;SDS011;51758;52.218;5.172;2023-02-15T03:07:11;45.50;;;25.30;;
65172;SDS011;51758;52.218;5.172;2023-02-15T03:09:42;43.60;;;25.90;;
65172;SDS011;51758;52.218;5.172;2023-02-15T03:12:16;46.60;;;26.20;;
65172;SDS011;51758;52.218;5.172;2023-02-15T03:14:48;45.90;;;25.13;;
65172;SDS011;51758;52.218;5.172;2023-02-15T03:17:18;48.07;;;25.93;;
65172;SDS011;51758;52.218;5.172;2023-02-15T03:19:49;45.30;;;24.90;;
65172;SDS011;51758;52.218;5.172;2023-02-15T03:22:22;42.70;;;24.00;;
65172;SDS011;51758;52.218;5.172;2023-02-15T03:24:57;42.13;;;24.00;;
65172;SDS011;51758;52.218;5.172;2023-02-15T03:27:32;43.03;;;24.73;;
65172;SDS011;51758;52.218;5.172;2023-02-15T03:30:02;43.97;;;25.63;;
65172;SDS011;51758;52.218;5.172;2023-02-15T03:32:33;52.73;;;27.03;;
65172;SDS011;51758;52.218;5.172;2023-02-15T03:35:04;50.47;;;27.83;;
65172;SDS011;51758;52.218;5.172;2023-02-15T03:37:34;44.85;;;25.58;;
65172;SDS011;51758;52.218;5.172;2023-02-15T03:40:06;47.23;;;25.03;;
65172;SDS011;51758;52.218;5.172;2023-02-15T03:42:53;44.77;;;26.40;;
65172;SDS011;51758;52.218;5.172;2023-02-15T03:45:29;47.53;;;26.20;;
65172;SDS011;51758;52.218;5.172;2023-02-15T03:48:00;51.63;;;28.47;;
65172;SDS011;51758;52.218;5.172;2023-02-15T03:50:29;47.43;;;25.87;;
65172;SDS011;51758;52.218;5.172;2023-02-15T03:53:17;50.03;;;25.57;;
65172;SDS011;51758;52.218;5.172;2023-02-15T03:55:48;49.30;;;26.20;;
65172;SDS011;51758;52.218;5.172;2023-02-15T03:58:17;46.03;;;25.48;;
65172;SDS011;51758;52.218;5.172;2023-02-15T04:01:04;56.37;;;28.33;;
65172;SDS011;51758;52.218;5.172;2023-02-15T04:03:55;55.20;;;27.63;;
65172;SDS011;51758;52.218;5.172;2023-02-15T04:06:26;49.80;;;26.57;;
65172;SDS011;51758;52.218;5.172;2023-02-15T04:08:54;53.20;;;26.80;;
65172;SDS011;51758;52.218;5.172;2023-02-15T04:11:39;53.73;;;28.07;;
65172;SDS011;51758;52.218;5.172;2023-02-15T04:14:08;50.33;;;26.57;;
65172;SDS011;51758;52.218;5.172;2023-02-15T04:16:50;47.40;;;26.10;;
65172;SDS011;51758;52.218;5.172;2023-02-15T04:19:18;50.67;;;26.30;;
65172;SDS011;51758;52.218;5.172;2023-02-15T04:22:03;59.17;;;29.63;;
65172;SDS011;51758;52.218;5.172;2023-02-15T04:24:49;49.37;;;27.07;;
65172;SDS011;51758;52.218;5.172;2023-02-15T04:27:34;46.93;;;24.97;;
65172;SDS011;51758;52.218;5.172;2023-02-15T04:30:04;47.40;;;25.63;;
65172;SDS011;51758;52.218;5.172;2023-02-15T04:32:33;52.77;;;27.43;;
65172;SDS011;51758;52.218;5.172;2023-02-15T04:35:00;51.57;;;27.03;;
65172;SDS011;51758;52.218;5.172;2023-02-15T04:37:28;53.08;;;27.20;;
65172;SDS011;51758;52.218;5.172;2023-02-15T04:39:56;53.27;;;27.07;;
65172;SDS011;51758;52.218;5.172;2023-02-15T04:42:24;57.47;;;27.52;;
65172;SDS011;51758;52.218;5.172;2023-02-15T04:44:52;65.80;;;30.63;;
65172;SDS011;51758;52.218;5.172;2023-02-15T04:47:22;50.60;;;26.00;;
65172;SDS011;51758;52.218;5.172;2023-02-15T04:49:50;51.80;;;27.13;;
65172;SDS011;51758;52.218;5.172;2023-02-15T04:52:17;64.90;;;30.27;;
65172;SDS011;51758;52.218;5.172;2023-02-15T04:54:45;55.60;;;29.10;;
65172;SDS011;51758;52.218;5.172;2023-02-15T04:57:13;56.27;;;28.83;;
65172;SDS011;51758;52.218;5.172;2023-02-15T04:59:40;55.57;;;29.13;;
65172;SDS011;51758;52.218;5.172;2023-02-15T05:02:08;59.43;;;29.87;;
65172;SDS011;51758;52.218;5.172;2023-02-15T05:04:37;71.37;;;34.67;;
65172;SDS011;51758;52.218;5.172;2023-02-15T05:07:05;67.03;;;32.37;;
65172;SDS011;51758;52.218;5.172;2023-02-15T05:09:33;56.60;;;29.97;;
65172;SDS011;51758;52.218;5.172;2023-02-15T05:12:00;59.73;;;30.43;;
65172;SDS011;51758;52.218;5.172;2023-02-15T05:14:28;64.03;;;31.67;;
65172;SDS011;51758;52.218;5.172;2023-02-15T05:16:56;57.53;;;30.03;;
65172;SDS011;51758;52.218;5.172;2023-02-15T05:19:27;65.50;;;30.80;;
65172;SDS011;51758;52.218;5.172;2023-02-15T05:21:56;66.30;;;30.87;;
65172;SDS011;51758;52.218;5.172;2023-02-15T05:27:10;61.57;;;28.60;;
65172;SDS011;51758;52.218;5.172;2023-02-15T05:29:55;54.00;;;27.53;;
65172;SDS011;51758;52.218;5.172;2023-02-15T05:32:23;53.60;;;27.73;;
65172;SDS011;51758;52.218;5.172;2023-02-15T05:34:51;53.47;;;28.05;;
65172;SDS011;51758;52.218;5.172;2023-02-15T05:37:20;56.43;;;29.20;;
65172;SDS011;51758;52.218;5.172;2023-02-15T05:39:48;53.37;;;28.10;;
65172;SDS011;51758;52.218;5.172;2023-02-15T05:42:16;61.97;;;29.20;;
65172;SDS011;51758;52.218;5.172;2023-02-15T05:44:44;58.40;;;30.33;;
65172;SDS011;51758;52.218;5.172;2023-02-15T05:47:11;58.85;;;28.75;;
65172;SDS011;51758;52.218;5.172;2023-02-15T05:49:39;60.50;;;28.70;;
65172;SDS011;51758;52.218;5.172;2023-02-15T05:52:07;61.50;;;30.07;;
65172;SDS011;51758;52.218;5.172;2023-02-15T05:54:36;58.10;;;29.27;;
65172;SDS011;51758;52.218;5.172;2023-02-15T05:57:03;61.57;;;30.13;;
65172;SDS011;51758;52.218;5.172;2023-02-15T05:59:31;67.00;;;31.33;;
65172;SDS011;51758;52.218;5.172;2023-02-15T06:01:59;60.87;;;31.27;;
65172;SDS011;51758;52.218;5.172;2023-02-15T06:04:26;62.97;;;32.20;;
65172;SDS011;51758;52.218;5.172;2023-02-15T06:06:54;62.17;;;29.20;;
65172;SDS011;51758;52.218;5.172;2023-02-15T06:09:22;55.67;;;29.37;;
65172;SDS011;51758;52.218;5.172;2023-02-15T06:11:51;56.23;;;28.00;;
65172;SDS011;51758;52.218;5.172;2023-02-15T06:14:19;60.27;;;27.80;;
65172;SDS011;51758;52.218;5.172;2023-02-15T06:16:47;56.55;;;28.73;;
65172;SDS011;51758;52.218;5.172;2023-02-15T06:19:14;58.03;;;27.93;;
65172;SDS011;51758;52.218;5.172;2023-02-15T06:21:43;57.13;;;30.63;;
65172;SDS011;51758;52.218;5.172;2023-02-15T06:24:11;59.05;;;28.80;;
65172;SDS011;51758;52.218;5.172;2023-02-15T06:26:38;63.80;;;31.27;;
65172;SDS011;51758;52.218;5.172;2023-02-15T06:29:07;54.13;;;28.63;;
65172;SDS011;51758;52.218;5.172;2023-02-15T06:31:35;57.93;;;30.73;;
65172;SDS011;51758;52.218;5.172;2023-02-15T06:34:03;57.43;;;31.87;;
65172;SDS011;51758;52.218;5.172;2023-02-15T06:36:32;66.47;;;30.50;;
65172;SDS011;51758;52.218;5.172;2023-02-15T06:38:59;56.10;;;30.27;;
65172;SDS011;51758;52.218;5.172;2023-02-15T06:41:28;57.60;;;29.27;;
65172;SDS011;51758;52.218;5.172;2023-02-15T06:43:56;53.93;;;28.07;;
65172;SDS011;51758;52.218;5.172;2023-02-15T06:46:25;59.73;;;31.20;;
65172;SDS011;51758;52.218;5.172;2023-02-15T06:48:53;56.63;;;29.43;;
65172;SDS011;51758;52.218;5.172;2023-02-15T06:51:20;55.03;;;28.40;;
65172;SDS011;51758;52.218;5.172;2023-02-15T06:53:48;57.10;;;29.30;;
65172;SDS011;51758;52.218;5.172;2023-02-15T06:56:15;59.53;;;29.10;;
65172;SDS011;51758;52.218;5.172;2023-02-15T06:58:43;60.80;;;29.70;;
65172;SDS011;51758;52.218;5.172;2023-02-15T07:01:12;55.35;;;26.98;;
65172;SDS011;51758;52.218;5.172;2023-02-15T07:03:41;59.10;;;29.50;;
65172;SDS011;51758;52.218;5.172;2023-02-15T07:06:09;56.60;;;28.33;;
65172;SDS011;51758;52.218;5.172;2023-02-15T07:08:37;49.72;;;27.30;;
65172;SDS011;51758;52.218;5.172;2023-02-15T07:14:03;57.80;;;29.00;;
65172;SDS011;51758;52.218;5.172;2023-02-15T07:16:30;55.90;;;27.20;;
65172;SDS011;51758;52.218;5.172;2023-02-15T07:19:00;55.80;;;29.77;;
65172;SDS011;51758;52.218;5.172;2023-02-15T07:21:27;65.40;;;31.40;;
65172;SDS011;51758;52.218;5.172;2023-02-15T07:23:56;60.47;;;31.17;;
65172;SDS011;51758;52.218;5.172;2023-02-15T07:26:24;63.90;;;30.83;;
65172;SDS011;51758;52.218;5.172;2023-02-15T07:28:52;63.80;;;30.17;;
65172;SDS011;51758;52.218;5.172;2023-02-15T07:31:20;64.83;;;32.67;;
65172;SDS011;51758;52.218;5.172;2023-02-15T07:33:47;68.07;;;31.63;;
65172;SDS011;51758;52.218;5.172;2023-02-15T07:36:16;62.83;;;31.60;;
65172;SDS011;51758;52.218;5.172;2023-02-15T07:38:44;58.03;;;31.10;;
65172;SDS011;51758;52.218;5.172;2023-02-15T07:41:13;54.72;;;30.30;;
65172;SDS011;51758;52.218;5.172;2023-02-15T07:43:43;68.70;;;33.00;;
65172;SDS011;51758;52.218;5.172;2023-02-15T07:46:12;65.70;;;31.97;;
65172;SDS011;51758;52.218;5.172;2023-02-15T07:48:42;63.83;;;31.03;;
65172;SDS011;51758;52.218;5.172;2023-02-15T07:51:11;61.97;;;32.73;;
65172;SDS011;51758;52.218;5.172;2023-02-15T07:53:42;61.03;;;31.37;;
65172;SDS011;51758;52.218;5.172;2023-02-15T07:56:11;62.97;;;32.23;;
65172;SDS011;51758;52.218;5.172;2023-02-15T07:58:39;64.20;;;31.80;;
65172;SDS011;51758;52.218;5.172;2023-02-15T08:01:20;60.90;;;30.27;;
65172;SDS011;51758;52.218;5.172;2023-02-15T08:03:50;60.80;;;31.77;;
65172;SDS011;51758;52.218;5.172;2023-02-15T08:06:17;57.40;;;30.70;;
65172;SDS011;51758;52.218;5.172;2023-02-15T08:08:47;64.70;;;33.13;;
65172;SDS011;51758;52.218;5.172;2023-02-15T08:11:16;55.83;;;30.03;;
65172;SDS011;51758;52.218;5.172;2023-02-15T08:14:03;54.60;;;31.60;;
65172;SDS011;51758;52.218;5.172;2023-02-15T08:16:33;59.60;;;32.63;;
65172;SDS011;51758;52.218;5.172;2023-02-15T08:19:03;62.57;;;31.47;;
65172;SDS011;51758;52.218;5.172;2023-02-15T08:21:34;59.57;;;32.83;;
65172;SDS011;51758;52.218;5.172;2023-02-15T08:24:04;61.97;;;33.00;;
65172;SDS011;51758;52.218;5.172;2023-02-15T08:26:34;64.60;;;33.03;;
65172;SDS011;51758;52.218;5.172;2023-02-15T08:29:02;60.28;;;33.05;;
65172;SDS011;51758;52.218;5.172;2023-02-15T08:31:30;59.58;;;33.20;;
65172;SDS011;51758;52.218;5.172;2023-02-15T08:33:58;66.00;;;33.77;;
65172;SDS011;51758;52.218;5.172;2023-02-15T08:36:28;61.80;;;35.13;;
65172;SDS011;51758;52.218;5.172;2023-02-15T08:38:58;61.00;;;32.63;;
65172;SDS011;51758;52.218;5.172;2023-02-15T08:41:28;63.13;;;33.47;;
65172;SDS011;51758;52.218;5.172;2023-02-15T08:43:58;62.73;;;34.90;;
65172;SDS011;51758;52.218;5.172;2023-02-15T08:46:29;62.03;;;33.43;;
65172;SDS011;51758;52.218;5.172;2023-02-15T08:48:59;60.17;;;32.97;;
65172;SDS011;51758;52.218;5.172;2023-02-15T08:51:27;56.53;;;33.07;;
65172;SDS011;51758;52.218;5.172;2023-02-15T08:53:57;55.83;;;32.30;;
65172;SDS011;51758;52.218;5.172;2023-02-15T08:56:27;58.63;;;34.27;;
65172;SDS011;51758;52.218;5.172;2023-02-15T08:58:58;55.90;;;33.07;;
65172;SDS011;51758;52.218;5.172;2023-02-15T09:01:26;58.65;;;33.13;;
65172;SDS011;51758;52.218;5.172;2023-02-15T09:03:57;56.90;;;32.80;;
65172;SDS011;51758;52.218;5.172;2023-02-15T09:06:26;55.57;;;32.50;;
65172;SDS011;51758;52.218;5.172;2023-02-15T09:08:55;54.97;;;30.93;;
65172;SDS011;51758;52.218;5.172;2023-02-15T09:11:24;53.30;;;31.55;;
65172;SDS011;51758;52.218;5.172;2023-02-15T09:13:55;52.50;;;31.07;;
65172;SDS011;51758;52.218;5.172;2023-02-15T09:16:24;51.90;;;31.50;;
65172;SDS011;51758;52.218;5.172;2023-02-15T09:18:53;55.63;;;30.97;;
65172;SDS011;51758;52.218;5.172;2023-02-15T09:21:23;49.60;;;29.13;;
65172;SDS011;51758;52.218;5.172;2023-02-15T09:23:55;49.93;;;30.83;;
65172;SDS011;51758;52.218;5.172;2023-02-15T09:26:24;51.40;;;29.80;;
65172;SDS011;51758;52.218;5.172;2023-02-15T09:31:24;52.20;;;30.90;;
65172;SDS011;51758;52.218;5.172;2023-02-15T09:33:53;52.17;;;30.53;;
65172;SDS011;51758;52.218;5.172;2023-02-15T09:36:22;49.45;;;30.33;;
65172;SDS011;51758;52.218;5.172;2023-02-15T09:38:53;52.03;;;30.17;;
65172;SDS011;51758;52.218;5.172;2023-02-15T09:41:31;49.53;;;30.00;;
65172;SDS011;51758;52.218;5.172;2023-02-15T09:44:13;48.00;;;30.27;;
65172;SDS011;51758;52.218;5.172;2023-02-15T09:46:55;46.67;;;28.92;;
65172;SDS011;51758;52.218;5.172;2023-02-15T09:49:35;48.10;;;29.17;;
65172;SDS011;51758;52.218;5.172;2023-02-15T09:52:19;46.23;;;27.80;;
65172;SDS011;51758;52.218;5.172;2023-02-15T09:55:01;43.53;;;28.13;;
65172;SDS011;51758;52.218;5.172;2023-02-15T09:57:40;52.37;;;27.70;;
65172;SDS011;51758;52.218;5.172;2023-02-15T10:00:19;45.60;;;28.33;;
65172;SDS011;51758;52.218;5.172;2023-02-15T10:03:00;48.03;;;29.37;;
65172;SDS011;51758;52.218;5.172;2023-02-15T10:05:42;44.53;;;27.10;;
65172;SDS011;51758;52.218;5.172;2023-02-15T10:08:22;48.80;;;30.03;;
65172;SDS011;51758;52.218;5.172;2023-02-15T10:11:28;46.80;;;28.53;;
65172;SDS011;51758;52.218;5.172;2023-02-15T10:17:15;41.43;;;27.23;;
65172;SDS011;51758;52.218;5.172;2023-02-15T10:19:58;43.07;;;27.13;;
65172;SDS011;51758;52.218;5.172;2023-02-15T10:22:39;44.50;;;26.80;;
65172;SDS011;51758;52.218;5.172;2023-02-15T10:25:24;42.97;;;26.70;;
65172;SDS011;51758;52.218;5.172;2023-02-15T10:28:01;40.17;;;25.90;;
65172;SDS011;51758;52.218;5.172;2023-02-15T10:30:35;45.43;;;27.20;;
65172;SDS011;51758;52.218;5.172;2023-02-15T10:33:14;42.23;;;26.27;;
65172;SDS011;51758;52.218;5.172;2023-02-15T10:35:57;43.37;;;27.00;;
65172;SDS011;51758;52.218;5.172;2023-02-15T10:38:34;44.63;;;27.40;;
65172;SDS011;51758;52.218;5.172;2023-02-15T10:41:17;45.30;;;28.00;;
65172;SDS011;51758;52.218;5.172;2023-02-15T10:44:00;53.43;;;32.17;;
65172;SDS011;51758;52.218;5.172;2023-02-15T10:46:44;64.23;;;39.17;;
65172;SDS011;51758;52.218;5.172;2023-02-15T10:49:25;47.40;;;27.83;;
65172;SDS011;51758;52.218;5.172;2023-02-15T10:52:07;42.10;;;26.27;;
65172;SDS011;51758;52.218;5.172;2023-02-15T10:54:45;50.93;;;28.80;;
65172;SDS011;51758;52.218;5.172;2023-02-15T10:57:18;46.37;;;26.67;;
65172;SDS011;51758;52.218;5.172;2023-02-15T10:59:57;53.77;;;29.77;;
65172;SDS011;51758;52.218;5.172;2023-02-15T11:02:37;39.78;;;25.38;;
65172;SDS011;51758;52.218;5.172;2023-02-15T11:05:17;45.40;;;28.93;;
65172;SDS011;51758;52.218;5.172;2023-02-15T11:07:55;41.73;;;24.80;;
65172;SDS011;51758;52.218;5.172;2023-02-15T11:10:29;38.07;;;25.03;;
65172;SDS011;51758;52.218;5.172;2023-02-15T11:13:01;43.23;;;26.27;;
65172;SDS011;51758;52.218;5.172;2023-02-15T11:15:33;41.50;;;27.17;;
65172;SDS011;51758;52.218;5.172;2023-02-15T11:18:05;53.53;;;32.60;;
65172;SDS011;51758;52.218;5.172;2023-02-15T11:20:41;42.27;;;26.90;;
65172;SDS011;51758;52.218;5.172;2023-02-15T11:23:15;47.93;;;28.87;;
65172;SDS011;51758;52.218;5.172;2023-02-15T11:25:45;47.50;;;30.37;;
65172;SDS011;51758;52.218;5.172;2023-02-15T11:28:20;54.93;;;31.93;;
65172;SDS011;51758;52.218;5.172;2023-02-15T11:30:54;51.23;;;32.23;;
65172;SDS011;51758;52.218;5.172;2023-02-15T11:33:25;47.50;;;27.77;;
65172;SDS011;51758;52.218;5.172;2023-02-15T11:35:58;46.37;;;27.73;;
65172;SDS011;51758;52.218;5.172;2023-02-15T11:38:33;49.67;;;29.20;;
65172;SDS011;51758;52.218;5.172;2023-02-15T11:41:01;47.10;;;27.80;;
65172;SDS011;51758;52.218;5.172;2023-02-15T11:43:32;46.60;;;27.63;;
65172;SDS011;51758;52.218;5.172;2023-02-15T11:46:04;43.47;;;28.10;;
65172;SDS011;51758;52.218;5.172;2023-02-15T11:48:37;45.67;;;28.60;;
65172;SDS011;51758;52.218;5.172;2023-02-15T11:53:38;41.57;;;25.23;;
65172;SDS011;51758;52.218;5.172;2023-02-15T11:56:10;43.03;;;27.40;;
65172;SDS011;51758;52.218;5.172;2023-02-15T11:58:42;49.70;;;29.40;;
65172;SDS011;51758;52.218;5.172;2023-02-15T12:01:14;43.70;;;27.30;;
65172;SDS011;51758;52.218;5.172;2023-02-15T12:03:46;46.07;;;28.20;;
65172;SDS011;51758;52.218;5.172;2023-02-15T12:06:23;42.57;;;27.77;;
65172;SDS011;51758;52.218;5.172;2023-02-15T12:08:55;43.67;;;28.43;;
65172;SDS011;51758;52.218;5.172;2023-02-15T12:11:31;45.17;;;29.30;;
65172;SDS011;51758;52.218;5.172;2023-02-15T12:14:03;43.77;;;27.80;;
65172;SDS011;51758;52.218;5.172;2023-02-15T12:16:33;46.13;;;28.40;;
65172;SDS011;51758;52.218;5.172;2023-02-15T12:19:12;43.50;;;27.57;;
65172;SDS011;51758;52.218;5.172;2023-02-15T12:21:51;50.87;;;28.57;;
65172;SDS011;51758;52.218;5.172;2023-02-15T12:24:22;45.03;;;28.80;;
65172;SDS011;51758;52.218;5.172;2023-02-15T12:26:55;42.90;;;27.87;;
65172;SDS011;51758;52.218;5.172;2023-02-15T12:29:26;42.73;;;28.10;;
65172;SDS011;51758;52.218;5.172;2023-02-15T12:31:56;47.60;;;27.80;;
65172;SDS011;51758;52.218;5.172;2023-02-15T12:34:26;42.57;;;28.13;;
65172;SDS011;51758;52.218;5.172;2023-02-15T12:36:57;42.83;;;28.70;;
65172;SDS011;51758;52.218;5.172;2023-02-15T12:39:30;48.80;;;28.90;;
65172;SDS011;51758;52.218;5.172;2023-02-15T12:42:00;42.83;;;29.17;;
65172;SDS011;51758;52.218;5.172;2023-02-15T12:44:30;44.33;;;28.90;;
65172;SDS011;51758;52.218;5.172;2023-02-15T12:47:00;41.07;;;28.63;;
65172;SDS011;51758;52.218;5.172;2023-02-15T12:49:31;46.47;;;30.07;;
65172;SDS011;51758;52.218;5.172;2023-02-15T12:52:00;49.30;;;28.20;;
65172;SDS011;51758;52.218;5.172;2023-02-15T12:54:33;44.87;;;28.80;;
65172;SDS011;51758;52.218;5.172;2023-02-15T12:57:13;42.70;;;28.90;;
65172;SDS011;51758;52.218;5.172;2023-02-15T12:59:48;46.30;;;29.07;;
65172;SDS011;51758;52.218;5.172;2023-02-15T13:02:19;42.33;;;28.17;;
65172;SDS011;51758;52.218;5.172;2023-02-15T13:04:51;46.43;;;29.87;;
65172;SDS011;51758;52.218;5.172;2023-02-15T13:07:19;43.37;;;29.43;;
65172;SDS011;51758;52.218;5.172;2023-02-15T13:12:18;45.93;;;28.50;;
65172;SDS011;51758;52.218;5.172;2023-02-15T13:14:50;46.27;;;28.40;;
65172;SDS011;51758;52.218;5.172;2023-02-15T13:17:23;52.67;;;31.03;;
65172;SDS011;51758;52.218;5.172;2023-02-15T13:19:56;52.23;;;29.07;;
65172;SDS011;51758;52.218;5.172;2023-02-15T13:22:33;49.17;;;30.30;;
65172;SDS011;51758;52.218;5.172;2023-02-15T13:25:11;43.80;;;29.73;;
65172;SDS011;51758;52.218;5.172;2023-02-15T13:27:42;46.80;;;31.03;;
65172;SDS011;51758;52.218;5.172;2023-02-15T13:32:59;52.20;;;31.93;;
65172;SDS011;51758;52.218;5.172;2023-02-15T13:35:31;50.20;;;32.57;;
65172;SDS011;51758;52.218;5.172;2023-02-15T13:41:12;47.47;;;31.20;;
65172;SDS011;51758;52.218;5.172;2023-02-15T13:43:46;46.93;;;30.93;;
65172;SDS011;51758;52.218;5.172;2023-02-15T13:46:36;46.33;;;29.73;;
65172;SDS011;51758;52.218;5.172;2023-02-15T13:49:17;46.50;;;29.20;;
65172;SDS011;51758;52.218;5.172;2023-02-15T13:51:58;50.13;;;29.73;;
65172;SDS011;51758;52.218;5.172;2023-02-15T13:57:42;44.30;;;28.73;;
65172;SDS011;51758;52.218;5.172;2023-02-15T14:00:22;44.70;;;28.93;;
65172;SDS011;51758;52.218;5.172;2023-02-15T14:03:09;46.33;;;29.87;;
65172;SDS011;51758;52.218;5.172;2023-02-15T14:06:10;49.53;;;30.00;;
65172;SDS011;51758;52.218;5.172;2023-02-15T14:08:52;49.53;;;32.50;;
65172;SDS011;51758;52.218;5.172;2023-02-15T14:11:32;45.70;;;30.83;;
65172;SDS011;51758;52.218;5.172;2023-02-15T14:14:22;47.22;;;30.60;;
65172;SDS011;51758;52.218;5.172;2023-02-15T14:17:09;43.57;;;29.20;;
65172;SDS011;51758;52.218;5.172;2023-02-15T14:19:48;49.00;;;31.30;;
65172;SDS011;51758;52.218;5.172;2023-02-15T14:22:22;49.87;;;31.97;;
65172;SDS011;51758;52.218;5.172;2023-02-15T14:25:05;48.43;;;30.80;;
65172;SDS011;51758;52.218;5.172;2023-02-15T14:27:48;50.47;;;30.47;;
65172;SDS011;51758;52.218;5.172;2023-02-15T14:30:26;48.07;;;31.17;;
65172;SDS011;51758;52.218;5.172;2023-02-15T14:32:59;48.43;;;30.97;;
65172;SDS011;51758;52.218;5.172;2023-02-15T14:35:33;47.63;;;30.97;;
65172;SDS011;51758;52.218;5.172;2023-02-15T14:38:02;49.47;;;31.45;;
65172;SDS011;51758;52.218;5.172;2023-02-15T14:40:39;51.53;;;30.87;;
65172;SDS011;51758;52.218;5.172;2023-02-15T14:43:33;49.33;;;32.67;;
65172;SDS011;51758;52.218;5.172;2023-02-15T14:46:23;43.33;;;29.30;;
65172;SDS011;51758;52.218;5.172;2023-02-15T14:48:58;48.00;;;29.67;;
65172;SDS011;51758;52.218;5.172;2023-02-15T14:57:24;43.33;;;29.80;;
65172;SDS011;51758;52.218;5.172;2023-02-15T14:59:54;45.10;;;29.57;;
65172;SDS011;51758;52.218;5.172;2023-02-15T15:02:26;47.63;;;31.40;;
65172;SDS011;51758;52.218;5.172;2023-02-15T15:04:59;43.97;;;30.70;;
65172;SDS011;51758;52.218;5.172;2023-02-15T15:07:35;47.03;;;29.90;;
65172;SDS011;51758;52.218;5.172;2023-02-15T15:10:07;47.27;;;30.67;;
65172;SDS011;51758;52.218;5.172;2023-02-15T15:13:33;46.13;;;30.67;;
65172;SDS011;51758;52.218;5.172;2023-02-15T15:16:28;47.03;;;29.67;;
65172;SDS011;51758;52.218;5.172;2023-02-15T15:22:35;51.63;;;31.67;;
65172;SDS011;51758;52.218;5.172;2023-02-15T15:25:04;46.83;;;30.33;;
65172;SDS011;51758;52.218;5.172;2023-02-15T15:27:43;47.53;;;30.47;;
65172;SDS011;51758;52.218;5.172;2023-02-15T15:36:49;51.97;;;30.47;;
65172;SDS011;51758;52.218;5.172;2023-02-15T15:39:50;50.80;;;31.57;;
65172;SDS011;51758;52.218;5.172;2023-02-15T15:42:51;49.13;;;30.30;;
65172;SDS011;51758;52.218;5.172;2023-02-15T15:45:50;67.47;;;32.27;;
65172;SDS011;51758;52.218;5.172;2023-02-15T15:48:29;53.60;;;32.67;;
65172;SDS011;51758;52.218;5.172;2023-02-15T15:51:00;48.50;;;31.47;;